sensor_id;sensor_type;location;lat;lon;timestamp;temperature;humidity
18575;DHT22;9417;16.484;102.872;2024-03-02T00:02:33;23.30;64.40
18575;DHT22;9417;16.484;102.872;2024-03-02T00:11:19;23.10;64.40
18575;DHT22;9417;16.484;102.872;2024-03-02T00:20:38;23.00;66.30
18575;DHT22;9417;16.484;102.872;2024-03-02T00:40:41;23.00;65.60
18575;DHT22;9417;16.484;102.872;2024-03-02T00:45:30;23.00;65.80
18575;DHT22;9417;16.484;102.872;2024-03-02T00:49:47;22.90;64.90
18575;DHT22;9417;16.484;102.872;2024-03-02T01:03:45;22.70;70.00
18575;DHT22;9417;16.484;102.872;2024-03-02T01:13:36;22.70;69.80
18575;DHT22;9417;16.484;102.872;2024-03-02T01:48:08;22.70;67.70
18575;DHT22;9417;16.484;102.872;2024-03-02T01:52:28;22.90;68.10
18575;DHT22;9417;16.484;102.872;2024-03-02T02:12:58;23.20;67.90
18575;DHT22;9417;16.484;102.872;2024-03-02T02:27:31;23.30;66.70
18575;DHT22;9417;16.484;102.872;2024-03-02T02:32:26;23.40;67.10
18575;DHT22;9417;16.484;102.872;2024-03-02T02:41:50;23.40;66.30
18575;DHT22;9417;16.484;102.872;2024-03-02T03:15:07;24.30;64.00
18575;DHT22;9417;16.484;102.872;2024-03-02T03:19:53;24.30;64.80
18575;DHT22;9417;16.484;102.872;2024-03-02T03:29:41;24.20;65.20
18575;DHT22;9417;16.484;102.872;2024-03-02T03:33:52;24.50;66.10
18575;DHT22;9417;16.484;102.872;2024-03-02T03:38:07;24.60;66.00
18575;DHT22;9417;16.484;102.872;2024-03-02T03:57:55;24.70;65.60
18575;DHT22;9417;16.484;102.872;2024-03-02T04:02:18;24.80;63.80
18575;DHT22;9417;16.484;102.872;2024-03-02T04:06:45;24.90;63.40
18575;DHT22;9417;16.484;102.872;2024-03-02T04:16:49;24.80;64.80
18575;DHT22;9417;16.484;102.872;2024-03-02T04:21:29;25.00;63.70
18575;DHT22;9417;16.484;102.872;2024-03-02T04:30:45;25.30;65.10
18575;DHT22;9417;16.484;102.872;2024-03-02T04:35:01;25.30;64.80
18575;DHT22;9417;16.484;102.872;2024-03-02T04:39:32;25.50;63.70
18575;DHT22;9417;16.484;102.872;2024-03-02T04:44:18;25.60;63.60
18575;DHT22;9417;16.484;102.872;2024-03-02T04:49:43;25.70;64.30
18575;DHT22;9417;16.484;102.872;2024-03-02T04:53:41;25.90;62.90
18575;DHT22;9417;16.484;102.872;2024-03-02T04:57:54;26.10;62.70
18575;DHT22;9417;16.484;102.872;2024-03-02T05:11:46;26.60;62.80
18575;DHT22;9417;16.484;102.872;2024-03-02T05:16:12;26.90;60.10
18575;DHT22;9417;16.484;102.872;2024-03-02T05:20:25;27.10;58.20
18575;DHT22;9417;16.484;102.872;2024-03-02T05:24:42;27.40;59.70
18575;DHT22;9417;16.484;102.872;2024-03-02T05:28:56;27.30;58.80
18575;DHT22;9417;16.484;102.872;2024-03-02T05:33:39;27.10;61.40
18575;DHT22;9417;16.484;102.872;2024-03-02T05:37:48;27.20;61.50
18575;DHT22;9417;16.484;102.872;2024-03-02T05:42:20;27.00;60.50
18575;DHT22;9417;16.484;102.872;2024-03-02T05:47:06;27.00;62.00
18575;DHT22;9417;16.484;102.872;2024-03-02T05:51:10;27.00;62.00
18575;DHT22;9417;16.484;102.872;2024-03-02T05:55:12;27.20;60.40
18575;DHT22;9417;16.484;102.872;2024-03-02T05:59:14;27.30;59.80
18575;DHT22;9417;16.484;102.872;2024-03-02T06:03:20;27.10;60.60
18575;DHT22;9417;16.484;102.872;2024-03-02T06:07:36;27.40;61.00
18575;DHT22;9417;16.484;102.872;2024-03-02T06:17:09;27.50;60.00
18575;DHT22;9417;16.484;102.872;2024-03-02T06:21:14;27.40;60.20
18575;DHT22;9417;16.484;102.872;2024-03-02T06:25:25;27.70;59.10
18575;DHT22;9417;16.484;102.872;2024-03-02T06:29:27;28.00;58.50
18575;DHT22;9417;16.484;102.872;2024-03-02T06:33:58;27.90;58.80
18575;DHT22;9417;16.484;102.872;2024-03-02T06:38:04;27.80;58.40
18575;DHT22;9417;16.484;102.872;2024-03-02T06:42:06;27.60;59.60
18575;DHT22;9417;16.484;102.872;2024-03-02T06:46:08;27.60;58.90
18575;DHT22;9417;16.484;102.872;2024-03-02T06:50:21;27.80;60.00
18575;DHT22;9417;16.484;102.872;2024-03-02T06:54:23;27.60;58.60
18575;DHT22;9417;16.484;102.872;2024-03-02T06:58:25;27.70;60.00
18575;DHT22;9417;16.484;102.872;2024-03-02T07:02:30;28.00;58.90
18575;DHT22;9417;16.484;102.872;2024-03-02T07:11:54;28.60;57.60
18575;DHT22;9417;16.484;102.872;2024-03-02T07:25:49;29.10;55.90
18575;DHT22;9417;16.484;102.872;2024-03-02T07:30:16;29.50;55.40
18575;DHT22;9417;16.484;102.872;2024-03-02T07:34:51;29.40;57.10
18575;DHT22;9417;16.484;102.872;2024-03-02T07:39:22;29.10;57.50
18575;DHT22;9417;16.484;102.872;2024-03-02T07:48:31;29.10;56.30
18575;DHT22;9417;16.484;102.872;2024-03-02T07:52:47;29.00;57.00
18575;DHT22;9417;16.484;102.872;2024-03-02T07:57:21;28.60;58.40
18575;DHT22;9417;16.484;102.872;2024-03-02T08:01:45;28.70;57.00
18575;DHT22;9417;16.484;102.872;2024-03-02T08:32:58;28.80;58.90
18575;DHT22;9417;16.484;102.872;2024-03-02T09:02:18;29.40;57.00
18575;DHT22;9417;16.484;102.872;2024-03-02T09:06:23;29.30;57.80
18575;DHT22;9417;16.484;102.872;2024-03-02T09:27:30;29.10;59.50
18575;DHT22;9417;16.484;102.872;2024-03-02T09:41:32;29.40;57.90
18575;DHT22;9417;16.484;102.872;2024-03-02T09:51:26;29.40;59.00
18575;DHT22;9417;16.484;102.872;2024-03-02T10:06:31;29.30;57.90
18575;DHT22;9417;16.484;102.872;2024-03-02T10:16:03;29.20;58.40
18575;DHT22;9417;16.484;102.872;2024-03-02T10:20:53;29.20;58.50
18575;DHT22;9417;16.484;102.872;2024-03-02T10:40:40;28.80;61.50
18575;DHT22;9417;16.484;102.872;2024-03-02T10:55:22;28.40;63.80
18575;DHT22;9417;16.484;102.872;2024-03-02T11:35:27;27.70;69.20
18575;DHT22;9417;16.484;102.872;2024-03-02T11:39:32;27.60;68.30
18575;DHT22;9417;16.484;102.872;2024-03-02T11:43:47;27.60;70.10
18575;DHT22;9417;16.484;102.872;2024-03-02T11:48:01;27.50;71.50
18575;DHT22;9417;16.484;102.872;2024-03-02T11:52:05;27.40;70.90
18575;DHT22;9417;16.484;102.872;2024-03-02T11:56:12;27.40;73.10
18575;DHT22;9417;16.484;102.872;2024-03-02T12:00:21;27.30;74.00
18575;DHT22;9417;16.484;102.872;2024-03-02T12:04:23;27.20;73.60
18575;DHT22;9417;16.484;102.872;2024-03-02T12:08:29;27.10;73.60
18575;DHT22;9417;16.484;102.872;2024-03-02T12:12:35;27.00;73.90
18575;DHT22;9417;16.484;102.872;2024-03-02T12:16:38;27.00;75.00
18575;DHT22;9417;16.484;102.872;2024-03-02T12:20:43;27.00;75.80
18575;DHT22;9417;16.484;102.872;2024-03-02T12:24:45;27.00;76.70
18575;DHT22;9417;16.484;102.872;2024-03-02T12:28:47;26.90;77.20
18575;DHT22;9417;16.484;102.872;2024-03-02T12:32:50;26.80;79.60
18575;DHT22;9417;16.484;102.872;2024-03-02T12:36:51;26.80;80.60
18575;DHT22;9417;16.484;102.872;2024-03-02T12:40:54;26.80;80.20
18575;DHT22;9417;16.484;102.872;2024-03-02T12:44:56;26.80;80.10
18575;DHT22;9417;16.484;102.872;2024-03-02T12:48:58;26.80;80.50
18575;DHT22;9417;16.484;102.872;2024-03-02T12:53:02;26.90;81.50
18575;DHT22;9417;16.484;102.872;2024-03-02T12:57:04;26.80;82.50
18575;DHT22;9417;16.484;102.872;2024-03-02T13:01:07;26.80;82.80
18575;DHT22;9417;16.484;102.872;2024-03-02T13:05:12;26.80;82.90
18575;DHT22;9417;16.484;102.872;2024-03-02T13:09:15;26.90;83.30
18575;DHT22;9417;16.484;102.872;2024-03-02T13:13:36;26.80;82.40
18575;DHT22;9417;16.484;102.872;2024-03-02T13:17:39;26.80;82.10
18575;DHT22;9417;16.484;102.872;2024-03-02T13:21:41;26.80;82.60
18575;DHT22;9417;16.484;102.872;2024-03-02T13:25:43;26.80;82.80
18575;DHT22;9417;16.484;102.872;2024-03-02T13:29:46;26.90;82.50
18575;DHT22;9417;16.484;102.872;2024-03-02T13:33:51;26.80;82.70
18575;DHT22;9417;16.484;102.872;2024-03-02T13:37:53;26.90;81.70
18575;DHT22;9417;16.484;102.872;2024-03-02T13:41:55;26.80;79.70
18575;DHT22;9417;16.484;102.872;2024-03-02T13:46:04;26.90;79.20
18575;DHT22;9417;16.484;102.872;2024-03-02T13:50:06;26.90;78.00
18575;DHT22;9417;16.484;102.872;2024-03-02T13:54:12;26.90;77.20
18575;DHT22;9417;16.484;102.872;2024-03-02T13:58:14;26.90;76.80
18575;DHT22;9417;16.484;102.872;2024-03-02T14:02:16;26.90;76.00
18575;DHT22;9417;16.484;102.872;2024-03-02T14:06:21;26.80;74.30
18575;DHT22;9417;16.484;102.872;2024-03-02T14:10:32;26.80;74.90
18575;DHT22;9417;16.484;102.872;2024-03-02T14:14:41;26.80;75.50
18575;DHT22;9417;16.484;102.872;2024-03-02T14:18:46;26.80;76.20
18575;DHT22;9417;16.484;102.872;2024-03-02T14:22:49;26.70;77.30
18575;DHT22;9417;16.484;102.872;2024-03-02T14:26:51;26.70;75.80
18575;DHT22;9417;16.484;102.872;2024-03-02T14:30:54;26.70;75.40
18575;DHT22;9417;16.484;102.872;2024-03-02T14:34:56;26.70;76.50
18575;DHT22;9417;16.484;102.872;2024-03-02T14:39:05;26.70;75.30
18575;DHT22;9417;16.484;102.872;2024-03-02T14:43:11;26.60;73.60
18575;DHT22;9417;16.484;102.872;2024-03-02T14:47:26;26.40;70.40
18575;DHT22;9417;16.484;102.872;2024-03-02T14:51:37;26.40;69.50
18575;DHT22;9417;16.484;102.872;2024-03-02T14:55:57;26.30;68.50
18575;DHT22;9417;16.484;102.872;2024-03-02T15:05:26;26.40;67.20
18575;DHT22;9417;16.484;102.872;2024-03-02T15:14:29;26.30;67.30
18575;DHT22;9417;16.484;102.872;2024-03-02T15:18:34;26.20;67.60
18575;DHT22;9417;16.484;102.872;2024-03-02T15:22:36;26.10;67.10
18575;DHT22;9417;16.484;102.872;2024-03-02T15:26:57;26.00;67.00
18575;DHT22;9417;16.484;102.872;2024-03-02T15:31:26;26.00;66.60
18575;DHT22;9417;16.484;102.872;2024-03-02T15:39:53;26.00;66.40
18575;DHT22;9417;16.484;102.872;2024-03-02T15:43:55;26.00;66.20
18575;DHT22;9417;16.484;102.872;2024-03-02T15:47:57;25.90;66.80
18575;DHT22;9417;16.484;102.872;2024-03-02T15:51:59;25.90;65.90
18575;DHT22;9417;16.484;102.872;2024-03-02T15:56:02;25.80;65.70
18575;DHT22;9417;16.484;102.872;2024-03-02T16:00:11;25.80;64.90
18575;DHT22;9417;16.484;102.872;2024-03-02T16:04:31;25.70;64.40
18575;DHT22;9417;16.484;102.872;2024-03-02T16:09:00;25.70;63.80
18575;DHT22;9417;16.484;102.872;2024-03-02T16:13:29;25.70;63.20
18575;DHT22;9417;16.484;102.872;2024-03-02T16:17:32;25.70;62.80
18575;DHT22;9417;16.484;102.872;2024-03-02T16:21:34;25.60;62.00
18575;DHT22;9417;16.484;102.872;2024-03-02T16:25:39;25.60;62.00
18575;DHT22;9417;16.484;102.872;2024-03-02T16:29:48;25.60;61.10
18575;DHT22;9417;16.484;102.872;2024-03-02T16:33:50;25.50;61.30
18575;DHT22;9417;16.484;102.872;2024-03-02T16:37:52;25.50;61.60
18575;DHT22;9417;16.484;102.872;2024-03-02T16:41:54;25.50;62.20
18575;DHT22;9417;16.484;102.872;2024-03-02T16:45:58;25.40;62.30
18575;DHT22;9417;16.484;102.872;2024-03-02T16:50:02;25.40;62.40
18575;DHT22;9417;16.484;102.872;2024-03-02T16:54:08;25.30;61.80
18575;DHT22;9417;16.484;102.872;2024-03-02T16:58:10;25.30;63.30
18575;DHT22;9417;16.484;102.872;2024-03-02T17:02:15;25.10;64.20
18575;DHT22;9417;16.484;102.872;2024-03-02T17:06:44;25.10;66.30
18575;DHT22;9417;16.484;102.872;2024-03-02T17:11:05;25.00;65.70
18575;DHT22;9417;16.484;102.872;2024-03-02T17:16:00;25.00;64.40
18575;DHT22;9417;16.484;102.872;2024-03-02T17:20:31;24.90;64.40
18575;DHT22;9417;16.484;102.872;2024-03-02T17:24:36;24.80;66.80
18575;DHT22;9417;16.484;102.872;2024-03-02T17:28:55;24.70;65.70
18575;DHT22;9417;16.484;102.872;2024-03-02T17:33:09;24.80;65.60
18575;DHT22;9417;16.484;102.872;2024-03-02T17:37:11;24.80;64.70
18575;DHT22;9417;16.484;102.872;2024-03-02T17:41:14;24.60;64.90
18575;DHT22;9417;16.484;102.872;2024-03-02T17:45:31;24.60;64.30
18575;DHT22;9417;16.484;102.872;2024-03-02T17:55:14;24.40;65.70
18575;DHT22;9417;16.484;102.872;2024-03-02T18:00:19;24.40;65.70
18575;DHT22;9417;16.484;102.872;2024-03-02T18:05:29;24.50;68.20
18575;DHT22;9417;16.484;102.872;2024-03-02T18:09:52;24.40;66.00
18575;DHT22;9417;16.484;102.872;2024-03-02T18:13:54;24.40;68.60
18575;DHT22;9417;16.484;102.872;2024-03-02T18:17:56;24.40;69.40
18575;DHT22;9417;16.484;102.872;2024-03-02T18:21:58;24.30;67.10
18575;DHT22;9417;16.484;102.872;2024-03-02T18:26:00;24.30;65.80
18575;DHT22;9417;16.484;102.872;2024-03-02T18:30:02;24.20;65.80
18575;DHT22;9417;16.484;102.872;2024-03-02T18:34:06;24.10;66.30
18575;DHT22;9417;16.484;102.872;2024-03-02T18:38:08;24.10;67.30
18575;DHT22;9417;16.484;102.872;2024-03-02T18:42:11;24.10;66.30
18575;DHT22;9417;16.484;102.872;2024-03-02T18:46:13;24.10;67.00
18575;DHT22;9417;16.484;102.872;2024-03-02T18:50:14;24.10;66.90
18575;DHT22;9417;16.484;102.872;2024-03-02T18:54:16;24.20;67.30
18575;DHT22;9417;16.484;102.872;2024-03-02T18:58:18;24.10;65.90
18575;DHT22;9417;16.484;102.872;2024-03-02T19:02:20;24.10;67.40
18575;DHT22;9417;16.484;102.872;2024-03-02T19:06:22;24.10;69.50
18575;DHT22;9417;16.484;102.872;2024-03-02T19:10:27;24.00;68.90
18575;DHT22;9417;16.484;102.872;2024-03-02T19:14:29;24.00;66.60
18575;DHT22;9417;16.484;102.872;2024-03-02T19:18:31;24.00;68.10
18575;DHT22;9417;16.484;102.872;2024-03-02T19:22:33;23.90;70.10
18575;DHT22;9417;16.484;102.872;2024-03-02T19:26:37;23.90;70.80
18575;DHT22;9417;16.484;102.872;2024-03-02T19:30:39;23.80;71.80
18575;DHT22;9417;16.484;102.872;2024-03-02T19:34:41;23.70;72.40
18575;DHT22;9417;16.484;102.872;2024-03-02T19:38:43;23.70;71.20
18575;DHT22;9417;16.484;102.872;2024-03-02T19:42:45;23.70;71.70
18575;DHT22;9417;16.484;102.872;2024-03-02T19:46:50;23.60;71.80
18575;DHT22;9417;16.484;102.872;2024-03-02T19:50:56;23.70;73.10
18575;DHT22;9417;16.484;102.872;2024-03-02T19:54:58;23.70;73.50
18575;DHT22;9417;16.484;102.872;2024-03-02T19:59:02;23.50;72.80
18575;DHT22;9417;16.484;102.872;2024-03-02T20:03:05;23.50;74.30
18575;DHT22;9417;16.484;102.872;2024-03-02T20:07:09;23.50;73.00
18575;DHT22;9417;16.484;102.872;2024-03-02T20:11:12;23.50;74.20
18575;DHT22;9417;16.484;102.872;2024-03-02T20:15:22;23.50;73.90
18575;DHT22;9417;16.484;102.872;2024-03-02T20:19:25;23.50;74.20
18575;DHT22;9417;16.484;102.872;2024-03-02T20:23:26;23.50;72.70
18575;DHT22;9417;16.484;102.872;2024-03-02T20:27:28;23.40;72.10
18575;DHT22;9417;16.484;102.872;2024-03-02T20:31:36;23.40;72.90
18575;DHT22;9417;16.484;102.872;2024-03-02T20:35:38;23.30;74.20
18575;DHT22;9417;16.484;102.872;2024-03-02T20:39:40;23.30;75.60
18575;DHT22;9417;16.484;102.872;2024-03-02T20:44:10;23.30;75.80
18575;DHT22;9417;16.484;102.872;2024-03-02T20:48:19;23.30;77.20
18575;DHT22;9417;16.484;102.872;2024-03-02T20:52:20;23.20;76.30
18575;DHT22;9417;16.484;102.872;2024-03-02T20:56:25;23.20;76.60
18575;DHT22;9417;16.484;102.872;2024-03-02T21:00:28;23.20;77.30
18575;DHT22;9417;16.484;102.872;2024-03-02T21:04:33;23.20;77.00
18575;DHT22;9417;16.484;102.872;2024-03-02T21:08:34;23.20;75.90
18575;DHT22;9417;16.484;102.872;2024-03-02T21:12:42;23.20;75.20
18575;DHT22;9417;16.484;102.872;2024-03-02T21:16:49;23.20;74.70
18575;DHT22;9417;16.484;102.872;2024-03-02T21:20:54;23.20;75.10
18575;DHT22;9417;16.484;102.872;2024-03-02T21:24:56;23.20;75.90
18575;DHT22;9417;16.484;102.872;2024-03-02T21:29:02;23.20;75.50
18575;DHT22;9417;16.484;102.872;2024-03-02T21:33:05;23.20;74.50
18575;DHT22;9417;16.484;102.872;2024-03-02T21:37:10;23.20;74.50
18575;DHT22;9417;16.484;102.872;2024-03-02T21:41:15;23.10;75.20
18575;DHT22;9417;16.484;102.872;2024-03-02T21:45:20;23.00;74.70
18575;DHT22;9417;16.484;102.872;2024-03-02T21:49:21;23.00;75.00
18575;DHT22;9417;16.484;102.872;2024-03-02T21:53:24;23.00;74.70
18575;DHT22;9417;16.484;102.872;2024-03-02T21:57:26;23.00;74.60
18575;DHT22;9417;16.484;102.872;2024-03-02T22:01:28;22.90;74.70
18575;DHT22;9417;16.484;102.872;2024-03-02T22:05:30;23.00;75.10
18575;DHT22;9417;16.484;102.872;2024-03-02T22:09:32;22.90;75.40
18575;DHT22;9417;16.484;102.872;2024-03-02T22:13:36;22.90;75.70
18575;DHT22;9417;16.484;102.872;2024-03-02T22:17:38;22.90;75.50
18575;DHT22;9417;16.484;102.872;2024-03-02T22:21:40;22.90;76.00
18575;DHT22;9417;16.484;102.872;2024-03-02T22:25:45;22.90;74.60
18575;DHT22;9417;16.484;102.872;2024-03-02T22:29:52;22.90;73.50
18575;DHT22;9417;16.484;102.872;2024-03-02T22:34:12;22.90;73.40
18575;DHT22;9417;16.484;102.872;2024-03-02T22:38:23;22.90;71.60
18575;DHT22;9417;16.484;102.872;2024-03-02T22:42:43;22.80;70.70
18575;DHT22;9417;16.484;102.872;2024-03-02T22:47:18;22.70;70.90
18575;DHT22;9417;16.484;102.872;2024-03-02T22:52:17;22.60;70.20
18575;DHT22;9417;16.484;102.872;2024-03-02T22:56:19;22.40;72.10
18575;DHT22;9417;16.484;102.872;2024-03-02T23:00:33;22.30;75.20
18575;DHT22;9417;16.484;102.872;2024-03-02T23:15:26;22.40;77.10
18575;DHT22;9417;16.484;102.872;2024-03-02T23:19:39;22.40;77.40
18575;DHT22;9417;16.484;102.872;2024-03-02T23:23:47;22.50;76.60
18575;DHT22;9417;16.484;102.872;2024-03-02T23:27:53;22.40;75.80
18575;DHT22;9417;16.484;102.872;2024-03-02T23:31:55;22.50;77.00
18575;DHT22;9417;16.484;102.872;2024-03-02T23:40:29;22.50;76.70
18575;DHT22;9417;16.484;102.872;2024-03-02T23:54:51;22.50;73.10
18575;DHT22;9417;16.484;102.872;2024-03-02T23:59:05;22.50;72.70
